Duanesburg, NY (12056)

18:59 EDT 27. Srpen 2014 (GMT -0400)
Duanesburg Rt. 20 | Change Station
CLOSE
Current Station
Osobní povětrnostní stanice
Location: Delanson, NY
Nadmořská výška: 1122 ft
Poblíž povětrnostní stanice

Výška 1122 ft 42.77 °N, 74.17 °W | Updated 4 seconds ago

Částečně oblačno
Částečně oblačno
70.9 °F
Pocit jako 77 °F
S
4.9
Vítr proměnlivý Vítr od severní
Gusts 4.9 mil/h

Dnes
Vysoké -- | Nízké -- °F
--% Možnost srážek
Včera
Vysoké -- | Nízké -- °F
Precip. -- inčů
6:15 AM 7:39 PM
Dorůstající srpek, 5% visible
Tlak 29.91 inčů
Viditelnost 10.0 mílí
Zataženo Jasno
Tepelný index 77 °F
Rosný bod 53 °F
Vlhkost 54%
Dešťové srážky 0.00 inčů
Sněhová pokrývka Není k dispozici
UV záření 1 ze 12
Pyl 9.40 ze 12
PM2.5 Střední
Flu Activity Není k dispozici
METAR KSCH 272155Z 28008KT 10SM CLR 26/19 A2991

More Conditions Fewer Conditions

Tlak 29.91 inčů
Viditelnost 10.0 mílí
Zataženo Jasno
Tepelný index 77 °F
Rosný bod 53 °F
Vlhkost 54%
Dešťové srážky 0.00 inčů
Sněhová pokrývka Není k dispozici
UV záření 1 ze 12
Pyl 9.40 ze 12
PM2.5 Střední
Flu Activity Není k dispozici
METAR KSCH 272155Z 28008KT 10SM CLR 26/19 A2991

More Conditions Fewer Conditions

10-Day Weather Forecast

Almanac

Astronomie

Aug. 27, 2014 Východ Západ
Skutečný čas 06:15 EDT 19:39 EDT
Občanský soumrak 05:46 EDT 20:08 EDT
Námořní soumrak 05:10 EDT 20:44 EDT
Astronomický soumrak 04:33 EDT 21:21 EDT
Měsíc 08:13 EDT 20:26 EDT
Délka denního světla 14h 22m
Délka dne
13h 23m
Tomorrow will be 2m 45s shorter.
Dorůstající srpek, 5% of the Moon is Illuminated
Dnes
Dorůstající srpek
Zář 2
První čtvrť
Zář 8
Úplněk
Zář 15
Ubývající
Zář 24
Nov

Dnešní extrémy

State Highs State Lows

Community

WunderPhotos

Upload Photos

1,747,805 snímků staženo!

Nearby

Kvalita ovzduší

  Kvalita ovzduší Index kvality ovzduší Polutant
Včera Střední
OZONE
Včera Střední
PM2.5
Nyní Střední
PM2.5
Středa Dobrý
OZONE
Středa Dobrý
PM2.5
Čtvrtek Dobrý
OZONE
Čtvrtek Dobrý
PM2.5

Výška sněhu

Station Hloubka Nadmořská výška
Žádný nový sníh nebyl hlášen

Seizmická činnost

Město Distance Mag. Čas & datum
Žádné zemětřesení v okolí nebylo hlášeno
Minimální zobrazený rozsah je 2.5.

Pobřežní teplota vody

Lokalita Teplota
Stanice nic nehlásí

Poblíž povětrnostní stanice